sensor_id;sensor_type;location;lat;lon;timestamp;pressure;altitude;pressure_sealevel;temperature;humidity
74958;BME280;63741;42.624;26.276;2022-12-11T00:00:29;98297.34;;;13.25;84.25
74958;BME280;63741;42.624;26.276;2022-12-11T00:02:56;98295.16;;;13.21;84.12
74958;BME280;63741;42.624;26.276;2022-12-11T00:05:23;98285.88;;;13.33;83.13
74958;BME280;63741;42.624;26.276;2022-12-11T00:07:50;98253.34;;;13.31;83.98
74958;BME280;63741;42.624;26.276;2022-12-11T00:10:17;98261.31;;;13.31;83.92
74958;BME280;63741;42.624;26.276;2022-12-11T00:12:43;98257.47;;;13.33;83.68
74958;BME280;63741;42.624;26.276;2022-12-11T00:15:10;98248.19;;;13.29;84.18
74958;BME280;63741;42.624;26.276;2022-12-11T00:17:38;98241.72;;;13.40;83.40
74958;BME280;63741;42.624;26.276;2022-12-11T00:20:05;98228.91;;;13.44;83.28
74958;BME280;63741;42.624;26.276;2022-12-11T00:22:33;98219.97;;;13.36;84.12
74958;BME280;63741;42.624;26.276;2022-12-11T00:25:00;98212.81;;;13.37;82.93
74958;BME280;63741;42.624;26.276;2022-12-11T00:27:27;98204.81;;;13.53;83.11
74958;BME280;63741;42.624;26.276;2022-12-11T00:29:54;98194.31;;;13.60;82.08
74958;BME280;63741;42.624;26.276;2022-12-11T00:32:21;98184.28;;;13.70;81.65
74958;BME280;63741;42.624;26.276;2022-12-11T00:34:48;98180.28;;;13.74;81.72
74958;BME280;63741;42.624;26.276;2022-12-11T00:37:15;98195.25;;;13.75;81.58
74958;BME280;63741;42.624;26.276;2022-12-11T00:39:42;98196.38;;;13.81;81.67
74958;BME280;63741;42.624;26.276;2022-12-11T00:42:09;98192.59;;;13.75;81.01
74958;BME280;63741;42.624;26.276;2022-12-11T00:44:36;98209.50;;;13.74;81.35
74958;BME280;63741;42.624;26.276;2022-12-11T00:47:02;98209.66;;;13.81;81.33
74958;BME280;63741;42.624;26.276;2022-12-11T00:49:29;98206.81;;;13.82;80.72
74958;BME280;63741;42.624;26.276;2022-12-11T00:51:56;98202.50;;;13.81;80.50
74958;BME280;63741;42.624;26.276;2022-12-11T00:54:23;98198.84;;;13.82;80.46
74958;BME280;63741;42.624;26.276;2022-12-11T00:56:50;98207.03;;;13.73;81.40
74958;BME280;63741;42.624;26.276;2022-12-11T00:59:18;98184.28;;;13.70;81.00
74958;BME280;63741;42.624;26.276;2022-12-11T01:01:45;98174.28;;;13.80;79.98
74958;BME280;63741;42.624;26.276;2022-12-11T01:04:12;98159.78;;;13.83;80.34
74958;BME280;63741;42.624;26.276;2022-12-11T01:06:39;98153.25;;;13.94;79.42
74958;BME280;63741;42.624;26.276;2022-12-11T01:09:06;98140.31;;;13.90;79.95
74958;BME280;63741;42.624;26.276;2022-12-11T01:11:52;98136.69;;;13.83;79.82
74958;BME280;63741;42.624;26.276;2022-12-11T01:14:18;98132.91;;;13.78;80.79
74958;BME280;63741;42.624;26.276;2022-12-11T01:16:45;98108.00;;;13.79;80.02
74958;BME280;63741;42.624;26.276;2022-12-11T01:19:12;98092.75;;;13.73;79.81
74958;BME280;63741;42.624;26.276;2022-12-11T01:21:39;98077.66;;;13.73;79.79
74958;BME280;63741;42.624;26.276;2022-12-11T01:24:06;98098.78;;;13.89;79.95
74958;BME280;63741;42.624;26.276;2022-12-11T01:26:33;98086.22;;;14.06;77.96
74958;BME280;63741;42.624;26.276;2022-12-11T01:29:00;98086.31;;;14.13;78.40
74958;BME280;63741;42.624;26.276;2022-12-11T01:31:28;98069.72;;;14.11;77.31
74958;BME280;63741;42.624;26.276;2022-12-11T01:33:55;98084.38;;;14.07;78.82
74958;BME280;63741;42.624;26.276;2022-12-11T01:36:22;98079.63;;;14.17;77.86
74958;BME280;63741;42.624;26.276;2022-12-11T01:38:50;98077.91;;;14.24;77.60
74958;BME280;63741;42.624;26.276;2022-12-11T01:41:17;98063.41;;;14.27;77.76
74958;BME280;63741;42.624;26.276;2022-12-11T01:44:06;98070.84;;;14.31;77.42
74958;BME280;63741;42.624;26.276;2022-12-11T01:46:35;98069.75;;;14.40;76.94
74958;BME280;63741;42.624;26.276;2022-12-11T01:49:05;98062.88;;;14.31;77.13
74958;BME280;63741;42.624;26.276;2022-12-11T01:51:40;98059.56;;;14.29;77.71
74958;BME280;63741;42.624;26.276;2022-12-11T01:54:11;98056.53;;;14.32;77.78
74958;BME280;63741;42.624;26.276;2022-12-11T01:56:40;98053.59;;;14.27;77.47
74958;BME280;63741;42.624;26.276;2022-12-11T01:59:11;98053.25;;;14.30;77.60
74958;BME280;63741;42.624;26.276;2022-12-11T02:02:20;98064.09;;;14.44;77.50
74958;BME280;63741;42.624;26.276;2022-12-11T02:04:48;98051.50;;;14.37;77.06
74958;BME280;63741;42.624;26.276;2022-12-11T02:07:15;98051.13;;;14.40;76.03
74958;BME280;63741;42.624;26.276;2022-12-11T02:09:44;98048.47;;;14.40;76.61
74958;BME280;63741;42.624;26.276;2022-12-11T02:12:38;98044.53;;;14.36;77.14
74958;BME280;63741;42.624;26.276;2022-12-11T02:29:22;97994.31;;;14.56;77.50
74958;BME280;63741;42.624;26.276;2022-12-11T02:32:03;97988.50;;;14.68;76.24
74958;BME280;63741;42.624;26.276;2022-12-11T02:34:41;97978.50;;;14.55;77.06
74958;BME280;63741;42.624;26.276;2022-12-11T02:37:15;97974.56;;;14.65;77.04
74958;BME280;63741;42.624;26.276;2022-12-11T02:39:45;97956.13;;;14.49;77.32
74958;BME280;63741;42.624;26.276;2022-12-11T02:42:14;97961.56;;;14.56;77.25
74958;BME280;63741;42.624;26.276;2022-12-11T02:44:43;97961.34;;;14.57;77.81
74958;BME280;63741;42.624;26.276;2022-12-11T02:47:14;97963.72;;;14.67;76.85
74958;BME280;63741;42.624;26.276;2022-12-11T02:49:44;97974.69;;;14.94;76.53
74958;BME280;63741;42.624;26.276;2022-12-11T02:52:15;97959.25;;;15.25;75.40
74958;BME280;63741;42.624;26.276;2022-12-11T02:54:43;97950.94;;;15.35;74.49
74958;BME280;63741;42.624;26.276;2022-12-11T02:59:51;97941.44;;;15.47;73.77
74958;BME280;63741;42.624;26.276;2022-12-11T03:02:18;97941.38;;;15.40;74.44
74958;BME280;63741;42.624;26.276;2022-12-11T03:04:46;97940.97;;;15.43;74.56
74958;BME280;63741;42.624;26.276;2022-12-11T03:07:18;97942.47;;;15.46;74.72
74958;BME280;63741;42.624;26.276;2022-12-11T03:09:49;97927.91;;;15.49;74.77
74958;BME280;63741;42.624;26.276;2022-12-11T03:12:27;97916.25;;;15.50;74.73
74958;BME280;63741;42.624;26.276;2022-12-11T03:14:56;97914.06;;;15.32;75.13
74958;BME280;63741;42.624;26.276;2022-12-11T03:17:39;97921.34;;;15.23;75.57
74958;BME280;63741;42.624;26.276;2022-12-11T03:25:21;97893.66;;;15.46;75.22
74958;BME280;63741;42.624;26.276;2022-12-11T03:30:20;97907.63;;;15.48;75.11
74958;BME280;63741;42.624;26.276;2022-12-11T03:32:52;97906.00;;;15.53;75.10
74958;BME280;63741;42.624;26.276;2022-12-11T03:37:53;97899.94;;;15.59;74.78
74958;BME280;63741;42.624;26.276;2022-12-11T03:40:23;97898.22;;;15.52;74.77
74958;BME280;63741;42.624;26.276;2022-12-11T03:42:52;97903.78;;;15.57;74.49
74958;BME280;63741;42.624;26.276;2022-12-11T03:45:23;97898.66;;;15.55;74.51
74958;BME280;63741;42.624;26.276;2022-12-11T03:47:52;97889.84;;;15.55;75.20
74958;BME280;63741;42.624;26.276;2022-12-11T03:50:21;97894.16;;;15.56;74.77
74958;BME280;63741;42.624;26.276;2022-12-11T03:52:52;97888.38;;;15.52;75.04
74958;BME280;63741;42.624;26.276;2022-12-11T03:55:21;97887.91;;;15.42;75.57
74958;BME280;63741;42.624;26.276;2022-12-11T03:57:48;97909.84;;;15.44;74.75
74958;BME280;63741;42.624;26.276;2022-12-11T04:00:18;97907.63;;;15.48;74.13
74958;BME280;63741;42.624;26.276;2022-12-11T04:02:45;97901.22;;;15.42;74.72
74958;BME280;63741;42.624;26.276;2022-12-11T04:08:09;97909.53;;;15.11;76.01
74958;BME280;63741;42.624;26.276;2022-12-11T04:10:37;97906.50;;;15.14;75.75
74958;BME280;63741;42.624;26.276;2022-12-11T04:13:04;97899.84;;;15.25;75.43
74958;BME280;63741;42.624;26.276;2022-12-11T04:15:31;97898.69;;;15.34;75.60
74958;BME280;63741;42.624;26.276;2022-12-11T04:17:58;97908.53;;;15.33;75.24
74958;BME280;63741;42.624;26.276;2022-12-11T04:20:44;97918.34;;;15.33;75.10
74958;BME280;63741;42.624;26.276;2022-12-11T04:23:29;97930.44;;;15.35;75.38
74958;BME280;63741;42.624;26.276;2022-12-11T04:26:17;97935.47;;;15.24;76.22
74958;BME280;63741;42.624;26.276;2022-12-11T04:28:47;97926.44;;;15.18;75.79
74958;BME280;63741;42.624;26.276;2022-12-11T04:31:20;97922.41;;;15.29;76.75
74958;BME280;63741;42.624;26.276;2022-12-11T04:33:48;97907.50;;;15.34;76.19
74958;BME280;63741;42.624;26.276;2022-12-11T04:36:15;97915.25;;;15.29;77.21
74958;BME280;63741;42.624;26.276;2022-12-11T04:38:42;97904.91;;;15.41;76.51
74958;BME280;63741;42.624;26.276;2022-12-11T04:41:12;97886.19;;;15.34;76.60
74958;BME280;63741;42.624;26.276;2022-12-11T04:43:39;97897.41;;;15.30;76.53
74958;BME280;63741;42.624;26.276;2022-12-11T04:46:10;97904.97;;;15.26;76.72
74958;BME280;63741;42.624;26.276;2022-12-11T04:48:38;97906.56;;;15.21;77.24
74958;BME280;63741;42.624;26.276;2022-12-11T04:51:05;97904.53;;;15.23;76.82
74958;BME280;63741;42.624;26.276;2022-12-11T04:53:33;97912.44;;;15.37;76.18
74958;BME280;63741;42.624;26.276;2022-12-11T04:56:04;97909.59;;;15.39;76.37
74958;BME280;63741;42.624;26.276;2022-12-11T04:58:31;97905.28;;;15.38;76.08
74958;BME280;63741;42.624;26.276;2022-12-11T05:00:58;97920.38;;;15.31;76.08
74958;BME280;63741;42.624;26.276;2022-12-11T05:03:25;97911.97;;;15.27;75.62
74958;BME280;63741;42.624;26.276;2022-12-11T05:05:52;97909.34;;;15.34;75.87
74958;BME280;63741;42.624;26.276;2022-12-11T05:08:20;97905.84;;;15.33;75.82
74958;BME280;63741;42.624;26.276;2022-12-11T05:11:05;97910.03;;;15.21;76.34
74958;BME280;63741;42.624;26.276;2022-12-11T05:13:32;97917.88;;;15.23;75.64
74958;BME280;63741;42.624;26.276;2022-12-11T05:15:59;97913.09;;;15.18;76.55
74958;BME280;63741;42.624;26.276;2022-12-11T05:18:28;97918.81;;;15.15;75.76
74958;BME280;63741;42.624;26.276;2022-12-11T05:21:07;97921.66;;;15.13;77.24
74958;BME280;63741;42.624;26.276;2022-12-11T05:23:35;97912.78;;;15.06;76.48
74958;BME280;63741;42.624;26.276;2022-12-11T05:26:05;97906.38;;;15.01;76.48
74958;BME280;63741;42.624;26.276;2022-12-11T05:28:35;97910.69;;;15.02;77.51
74958;BME280;63741;42.624;26.276;2022-12-11T05:31:09;97919.03;;;14.99;77.08
74958;BME280;63741;42.624;26.276;2022-12-11T05:33:37;97888.31;;;14.96;77.27
74958;BME280;63741;42.624;26.276;2022-12-11T05:36:06;97894.78;;;14.87;77.88
74958;BME280;63741;42.624;26.276;2022-12-11T05:38:33;97895.38;;;14.89;78.04
74958;BME280;63741;42.624;26.276;2022-12-11T05:41:02;97902.25;;;14.98;77.58
74958;BME280;63741;42.624;26.276;2022-12-11T05:43:32;97904.13;;;15.26;76.74
74958;BME280;63741;42.624;26.276;2022-12-11T05:46:07;97915.50;;;15.34;77.05
74958;BME280;63741;42.624;26.276;2022-12-11T05:48:35;97915.50;;;15.34;76.36
74958;BME280;63741;42.624;26.276;2022-12-11T05:51:03;97914.41;;;15.29;77.57
74958;BME280;63741;42.624;26.276;2022-12-11T05:53:31;97916.66;;;15.53;76.91
74958;BME280;63741;42.624;26.276;2022-12-11T05:56:06;97910.03;;;15.42;77.74
74958;BME280;63741;42.624;26.276;2022-12-11T05:58:34;97917.41;;;15.40;77.79
74958;BME280;63741;42.624;26.276;2022-12-11T06:01:01;97930.19;;;15.30;77.33
74958;BME280;63741;42.624;26.276;2022-12-11T06:03:32;97932.69;;;15.32;77.35
74958;BME280;63741;42.624;26.276;2022-12-11T06:06:05;97932.13;;;15.36;78.21
74958;BME280;63741;42.624;26.276;2022-12-11T06:08:33;97927.38;;;15.32;78.40
74958;BME280;63741;42.624;26.276;2022-12-11T06:11:01;97927.41;;;15.38;77.32
74958;BME280;63741;42.624;26.276;2022-12-11T06:13:28;97936.69;;;15.42;77.94
74958;BME280;63741;42.624;26.276;2022-12-11T06:15:59;97931.25;;;15.57;76.84
74958;BME280;63741;42.624;26.276;2022-12-11T06:18:27;97924.28;;;15.56;77.27
74958;BME280;63741;42.624;26.276;2022-12-11T06:20:54;97926.50;;;15.53;77.85
74958;BME280;63741;42.624;26.276;2022-12-11T06:23:21;97932.94;;;15.58;77.40
74958;BME280;63741;42.624;26.276;2022-12-11T06:25:48;97929.31;;;15.66;77.39
74958;BME280;63741;42.624;26.276;2022-12-11T06:28:15;97912.38;;;15.74;76.96
74958;BME280;63741;42.624;26.276;2022-12-11T06:30:42;97920.81;;;15.77;76.75
74958;BME280;63741;42.624;26.276;2022-12-11T06:33:09;97922.41;;;15.72;77.00
74958;BME280;63741;42.624;26.276;2022-12-11T06:36:30;97932.97;;;15.86;76.07
74958;BME280;63741;42.624;26.276;2022-12-11T06:38:57;97927.53;;;16.36;74.85
74958;BME280;63741;42.624;26.276;2022-12-11T06:41:24;97932.06;;;16.83;73.02
74958;BME280;63741;42.624;26.276;2022-12-11T06:43:51;97932.34;;;17.08;71.92
74958;BME280;63741;42.624;26.276;2022-12-11T06:46:18;97941.50;;;17.74;69.43
74958;BME280;63741;42.624;26.276;2022-12-11T06:48:46;97942.81;;;18.42;67.81
74958;BME280;63741;42.624;26.276;2022-12-11T06:51:15;97957.88;;;18.95;66.09
74958;BME280;63741;42.624;26.276;2022-12-11T06:53:43;97964.00;;;19.47;63.64
74958;BME280;63741;42.624;26.276;2022-12-11T06:56:13;97961.59;;;19.64;63.18
74958;BME280;63741;42.624;26.276;2022-12-11T06:58:41;97969.09;;;19.87;63.09
74958;BME280;63741;42.624;26.276;2022-12-11T07:01:17;97969.34;;;20.04;62.28
74958;BME280;63741;42.624;26.276;2022-12-11T07:03:45;97986.88;;;20.06;62.18
74958;BME280;63741;42.624;26.276;2022-12-11T07:06:13;97974.81;;;20.15;61.92
74958;BME280;63741;42.624;26.276;2022-12-11T07:08:40;97969.06;;;19.62;63.36
74958;BME280;63741;42.624;26.276;2022-12-11T07:11:10;97988.22;;;18.89;65.57
74958;BME280;63741;42.624;26.276;2022-12-11T07:13:38;97985.84;;;18.34;66.14
74958;BME280;63741;42.624;26.276;2022-12-11T07:16:05;97983.66;;;18.05;68.03
74958;BME280;63741;42.624;26.276;2022-12-11T07:18:37;97981.75;;;17.65;69.45
74958;BME280;63741;42.624;26.276;2022-12-11T07:21:05;97976.09;;;17.14;71.51
74958;BME280;63741;42.624;26.276;2022-12-11T07:23:33;97975.88;;;17.02;72.06
74958;BME280;63741;42.624;26.276;2022-12-11T07:26:05;97977.06;;;16.86;72.86
74958;BME280;63741;42.624;26.276;2022-12-11T07:28:33;97986.66;;;16.74;73.15
74958;BME280;63741;42.624;26.276;2022-12-11T07:31:08;97989.63;;;16.58;73.56
74958;BME280;63741;42.624;26.276;2022-12-11T07:33:35;97991.56;;;16.71;73.26
74958;BME280;63741;42.624;26.276;2022-12-11T07:36:04;97977.50;;;16.55;73.86
74958;BME280;63741;42.624;26.276;2022-12-11T07:38:31;97975.41;;;16.44;73.95
74958;BME280;63741;42.624;26.276;2022-12-11T07:41:06;97975.56;;;16.36;74.19
74958;BME280;63741;42.624;26.276;2022-12-11T07:43:34;97975.13;;;16.32;74.55
74958;BME280;63741;42.624;26.276;2022-12-11T07:46:03;97994.00;;;16.31;74.98
74958;BME280;63741;42.624;26.276;2022-12-11T07:48:31;98000.53;;;16.28;75.02
74958;BME280;63741;42.624;26.276;2022-12-11T07:53:38;97995.94;;;16.43;73.71
74958;BME280;63741;42.624;26.276;2022-12-11T07:56:05;98000.94;;;16.60;73.07
74958;BME280;63741;42.624;26.276;2022-12-11T07:58:32;97994.75;;;16.59;73.27
74958;BME280;63741;42.624;26.276;2022-12-11T08:00:59;97998.84;;;16.55;73.96
74958;BME280;63741;42.624;26.276;2022-12-11T08:03:26;97987.94;;;16.50;74.49
74958;BME280;63741;42.624;26.276;2022-12-11T08:05:53;97978.53;;;16.54;73.99
74958;BME280;63741;42.624;26.276;2022-12-11T08:08:21;97978.56;;;16.61;74.23
74958;BME280;63741;42.624;26.276;2022-12-11T08:10:48;97985.38;;;16.70;73.37
74958;BME280;63741;42.624;26.276;2022-12-11T08:13:14;97976.88;;;16.88;73.00
74958;BME280;63741;42.624;26.276;2022-12-11T08:15:41;97977.75;;;17.02;72.29
74958;BME280;63741;42.624;26.276;2022-12-11T08:18:08;97974.47;;;17.13;71.81
74958;BME280;63741;42.624;26.276;2022-12-11T08:20:37;97981.44;;;17.07;71.70
74958;BME280;63741;42.624;26.276;2022-12-11T08:23:04;97972.22;;;17.23;71.22
74958;BME280;63741;42.624;26.276;2022-12-11T08:25:31;97980.09;;;17.51;70.24
74958;BME280;63741;42.624;26.276;2022-12-11T08:27:58;97971.47;;;17.56;70.34
74958;BME280;63741;42.624;26.276;2022-12-11T08:30:25;97976.44;;;17.99;68.97
74958;BME280;63741;42.624;26.276;2022-12-11T08:32:52;97975.19;;;17.94;68.51
74958;BME280;63741;42.624;26.276;2022-12-11T08:35:19;97969.66;;;17.89;68.54
74958;BME280;63741;42.624;26.276;2022-12-11T08:37:46;97968.41;;;17.99;68.60
74958;BME280;63741;42.624;26.276;2022-12-11T08:40:13;97971.91;;;17.92;68.71
74958;BME280;63741;42.624;26.276;2022-12-11T08:42:40;97973.38;;;17.75;69.37
74958;BME280;63741;42.624;26.276;2022-12-11T08:45:07;97965.50;;;17.67;69.32
74958;BME280;63741;42.624;26.276;2022-12-11T08:47:35;97948.44;;;17.55;70.04
74958;BME280;63741;42.624;26.276;2022-12-11T08:50:03;97951.72;;;17.43;70.77
74958;BME280;63741;42.624;26.276;2022-12-11T08:52:30;97957.25;;;17.35;70.13
74958;BME280;63741;42.624;26.276;2022-12-11T08:55:00;97937.72;;;17.28;70.68
74958;BME280;63741;42.624;26.276;2022-12-11T08:57:27;97929.06;;;17.20;70.98
74958;BME280;63741;42.624;26.276;2022-12-11T08:59:54;97932.97;;;17.17;71.88
74958;BME280;63741;42.624;26.276;2022-12-11T09:02:21;97938.53;;;17.15;72.15
74958;BME280;63741;42.624;26.276;2022-12-11T09:04:48;97942.84;;;17.16;72.03
74958;BME280;63741;42.624;26.276;2022-12-11T09:07:15;97944.25;;;17.12;72.28
74958;BME280;63741;42.624;26.276;2022-12-11T09:09:42;97958.47;;;17.20;72.30
74958;BME280;63741;42.624;26.276;2022-12-11T09:12:09;97958.03;;;17.16;72.02
74958;BME280;63741;42.624;26.276;2022-12-11T09:14:35;97959.28;;;17.20;71.64
74958;BME280;63741;42.624;26.276;2022-12-11T09:17:03;97952.53;;;17.24;71.98
74958;BME280;63741;42.624;26.276;2022-12-11T09:19:31;97951.47;;;17.25;72.18
74958;BME280;63741;42.624;26.276;2022-12-11T09:21:58;97951.91;;;17.29;71.52
74958;BME280;63741;42.624;26.276;2022-12-11T09:24:25;97940.81;;;17.38;71.65
74958;BME280;63741;42.624;26.276;2022-12-11T09:26:51;97939.38;;;17.49;70.83
74958;BME280;63741;42.624;26.276;2022-12-11T09:29:20;97935.47;;;17.52;71.03
74958;BME280;63741;42.624;26.276;2022-12-11T09:31:47;97943.09;;;17.55;70.68
74958;BME280;63741;42.624;26.276;2022-12-11T09:34:15;97937.75;;;17.48;71.71
74958;BME280;63741;42.624;26.276;2022-12-11T09:36:42;97942.66;;;17.38;71.73
74958;BME280;63741;42.624;26.276;2022-12-11T09:39:10;97941.44;;;17.34;72.32
74958;BME280;63741;42.624;26.276;2022-12-11T09:41:49;97938.34;;;17.24;73.33
74958;BME280;63741;42.624;26.276;2022-12-11T09:44:28;97940.97;;;17.17;73.06
74958;BME280;63741;42.624;26.276;2022-12-11T09:46:57;97936.47;;;17.11;72.27
74958;BME280;63741;42.624;26.276;2022-12-11T09:49:53;97940.78;;;17.12;72.48
74958;BME280;63741;42.624;26.276;2022-12-11T09:52:53;97942.81;;;17.03;73.13
74958;BME280;63741;42.624;26.276;2022-12-11T09:55:25;97940.78;;;17.12;70.89
74958;BME280;63741;42.624;26.276;2022-12-11T10:00:34;97920.81;;;17.08;70.71
74958;BME280;63741;42.624;26.276;2022-12-11T10:11:36;97906.47;;;17.15;70.02
74958;BME280;63741;42.624;26.276;2022-12-11T10:19:41;97906.47;;;17.15;71.05
74958;BME280;63741;42.624;26.276;2022-12-11T10:22:26;97897.22;;;17.31;70.75
74958;BME280;63741;42.624;26.276;2022-12-11T10:24:58;97886.53;;;17.31;70.45
74958;BME280;63741;42.624;26.276;2022-12-11T10:27:42;97896.63;;;17.42;70.17
74958;BME280;63741;42.624;26.276;2022-12-11T10:30:22;97901.53;;;17.46;68.18
74958;BME280;63741;42.624;26.276;2022-12-11T10:32:50;97903.19;;;17.53;67.11
74958;BME280;63741;42.624;26.276;2022-12-11T10:37:51;97910.59;;;17.58;66.56
74958;BME280;63741;42.624;26.276;2022-12-11T10:40:22;97914.31;;;17.57;66.65
74958;BME280;63741;42.624;26.276;2022-12-11T10:42:53;97911.44;;;17.65;66.46
74958;BME280;63741;42.624;26.276;2022-12-11T10:45:20;97912.47;;;17.64;66.89
74958;BME280;63741;42.624;26.276;2022-12-11T10:47:47;97906.25;;;17.63;66.53
74958;BME280;63741;42.624;26.276;2022-12-11T10:50:23;97896.19;;;17.72;67.03
74958;BME280;63741;42.624;26.276;2022-12-11T10:52:50;97905.25;;;17.84;65.91
74958;BME280;63741;42.624;26.276;2022-12-11T10:55:28;97903.41;;;17.85;67.00
74958;BME280;63741;42.624;26.276;2022-12-11T10:57:59;97900.94;;;17.90;65.85
74958;BME280;63741;42.624;26.276;2022-12-11T11:00:33;97896.00;;;17.93;66.25
74958;BME280;63741;42.624;26.276;2022-12-11T11:03:01;97896.63;;;17.89;66.10
74958;BME280;63741;42.624;26.276;2022-12-11T11:05:35;97901.78;;;17.90;66.33
74958;BME280;63741;42.624;26.276;2022-12-11T11:08:20;97890.81;;;17.99;65.99
74958;BME280;63741;42.624;26.276;2022-12-11T11:10:55;97888.78;;;18.01;65.85
74958;BME280;63741;42.624;26.276;2022-12-11T11:13:25;97879.50;;;18.03;65.23
74958;BME280;63741;42.624;26.276;2022-12-11T11:16:19;97879.09;;;18.06;64.98
74958;BME280;63741;42.624;26.276;2022-12-11T11:18:54;97879.50;;;18.10;64.64
74958;BME280;63741;42.624;26.276;2022-12-11T11:21:24;97871.47;;;18.10;65.26
74958;BME280;63741;42.624;26.276;2022-12-11T11:23:53;97869.84;;;18.09;65.23
74958;BME280;63741;42.624;26.276;2022-12-11T11:26:20;97881.91;;;18.25;63.97
74958;BME280;63741;42.624;26.276;2022-12-11T11:29:21;97871.22;;;18.25;61.99
74958;BME280;63741;42.624;26.276;2022-12-11T11:31:51;97875.56;;;18.19;61.95
74958;BME280;63741;42.624;26.276;2022-12-11T11:34:19;97867.94;;;18.16;63.19
74958;BME280;63741;42.624;26.276;2022-12-11T11:36:56;97862.41;;;18.11;63.88
74958;BME280;63741;42.624;26.276;2022-12-11T11:41:59;97876.56;;;18.25;63.25
74958;BME280;63741;42.624;26.276;2022-12-11T11:44:33;97865.03;;;18.31;63.54
74958;BME280;63741;42.624;26.276;2022-12-11T11:47:17;97863.13;;;18.44;62.39
74958;BME280;63741;42.624;26.276;2022-12-11T11:50:05;97866.84;;;18.37;61.47
74958;BME280;63741;42.624;26.276;2022-12-11T11:52:41;97868.94;;;18.28;61.84
74958;BME280;63741;42.624;26.276;2022-12-11T11:55:19;97866.09;;;18.23;62.47
74958;BME280;63741;42.624;26.276;2022-12-11T11:58:00;97870.63;;;18.16;61.67
74958;BME280;63741;42.624;26.276;2022-12-11T12:00:29;97873.91;;;18.18;62.29
74958;BME280;63741;42.624;26.276;2022-12-11T12:11:16;97875.66;;;18.51;61.98
74958;BME280;63741;42.624;26.276;2022-12-11T12:14:07;97868.50;;;18.83;61.00
74958;BME280;63741;42.624;26.276;2022-12-11T12:20:03;97856.94;;;19.45;59.19
74958;BME280;63741;42.624;26.276;2022-12-11T12:28:47;97853.66;;;19.68;58.93
74958;BME280;63741;42.624;26.276;2022-12-11T12:34:27;97838.03;;;19.09;60.18
74958;BME280;63741;42.624;26.276;2022-12-11T12:48:25;97806.59;;;18.59;61.24
74958;BME280;63741;42.624;26.276;2022-12-11T12:50:54;97802.81;;;18.80;59.63
74958;BME280;63741;42.624;26.276;2022-12-11T12:53:25;97806.50;;;18.79;60.60
74958;BME280;63741;42.624;26.276;2022-12-11T12:55:53;97807.84;;;18.95;60.29
74958;BME280;63741;42.624;26.276;2022-12-11T12:58:43;97814.91;;;19.14;60.93
74958;BME280;63741;42.624;26.276;2022-12-11T13:01:20;97807.03;;;19.19;60.83
74958;BME280;63741;42.624;26.276;2022-12-11T13:06:38;97807.44;;;25.29;44.03
74958;BME280;63741;42.624;26.276;2022-12-11T13:11:46;97814.63;;;24.64;44.12
74958;BME280;63741;42.624;26.276;2022-12-11T13:16:44;97829.66;;;21.84;51.20
74958;BME280;63741;42.624;26.276;2022-12-11T13:21:58;97824.19;;;20.05;55.85
74958;BME280;63741;42.624;26.276;2022-12-11T13:24:30;97816.50;;;19.47;58.52
74958;BME280;63741;42.624;26.276;2022-12-11T13:27:09;97813.88;;;19.15;59.67
74958;BME280;63741;42.624;26.276;2022-12-11T13:29:40;97810.09;;;18.98;60.71
74958;BME280;63741;42.624;26.276;2022-12-11T13:34:52;97821.34;;;18.37;62.66
74958;BME280;63741;42.624;26.276;2022-12-11T13:37:28;97823.38;;;18.41;62.77
74958;BME280;63741;42.624;26.276;2022-12-11T13:39:58;97829.56;;;18.42;62.39
74958;BME280;63741;42.624;26.276;2022-12-11T13:42:33;97831.88;;;18.32;62.80
74958;BME280;63741;42.624;26.276;2022-12-11T13:45:02;97828.44;;;18.18;63.64
74958;BME280;63741;42.624;26.276;2022-12-11T13:47:30;97825.94;;;18.16;64.00
74958;BME280;63741;42.624;26.276;2022-12-11T13:50:16;97834.66;;;18.05;64.39
74958;BME280;63741;42.624;26.276;2022-12-11T13:52:56;97838.53;;;18.09;63.91
74958;BME280;63741;42.624;26.276;2022-12-11T13:55:26;97843.06;;;18.09;64.19
74958;BME280;63741;42.624;26.276;2022-12-11T13:57:53;97844.53;;;17.98;64.99
74958;BME280;63741;42.624;26.276;2022-12-11T14:00:28;97845.78;;;17.89;65.12
74958;BME280;63741;42.624;26.276;2022-12-11T14:03:00;97838.59;;;17.89;64.87
74958;BME280;63741;42.624;26.276;2022-12-11T14:05:28;97842.50;;;17.93;64.34
74958;BME280;63741;42.624;26.276;2022-12-11T14:07:57;97853.00;;;17.88;65.13
74958;BME280;63741;42.624;26.276;2022-12-11T14:10:29;97856.91;;;17.66;65.05
74958;BME280;63741;42.624;26.276;2022-12-11T14:13:00;97852.41;;;17.60;65.52
74958;BME280;63741;42.624;26.276;2022-12-11T14:15:30;97866.19;;;17.50;65.76
74958;BME280;63741;42.624;26.276;2022-12-11T14:17:58;97875.44;;;17.48;65.78
74958;BME280;63741;42.624;26.276;2022-12-11T14:20:31;97867.81;;;17.44;65.13
74958;BME280;63741;42.624;26.276;2022-12-11T14:23:06;97869.88;;;17.29;65.75
74958;BME280;63741;42.624;26.276;2022-12-11T14:25:33;97873.59;;;17.28;65.58
74958;BME280;63741;42.624;26.276;2022-12-11T14:28:00;97864.75;;;17.34;64.78
74958;BME280;63741;42.624;26.276;2022-12-11T14:30:29;97867.81;;;17.31;64.25
74958;BME280;63741;42.624;26.276;2022-12-11T14:32:59;97863.09;;;17.20;63.73
74958;BME280;63741;42.624;26.276;2022-12-11T14:35:31;97871.72;;;17.15;63.99
74958;BME280;63741;42.624;26.276;2022-12-11T14:38:12;97864.94;;;17.13;63.81
74958;BME280;63741;42.624;26.276;2022-12-11T14:40:44;97864.13;;;17.06;63.87
74958;BME280;63741;42.624;26.276;2022-12-11T14:43:44;97865.53;;;16.88;65.05
74958;BME280;63741;42.624;26.276;2022-12-11T14:46:15;97863.66;;;16.82;65.13
74958;BME280;63741;42.624;26.276;2022-12-11T14:48:56;97866.75;;;16.79;64.89